sensor_id;sensor_type;location;lat;lon;timestamp;pressure;altitude;pressure_sealevel;temperature;humidity
6028;BME280;3042;43.194;27.646;2023-03-23T00:01:01;101689.53;;;16.63;100.00
6028;BME280;3042;43.194;27.646;2023-03-23T00:03:28;101625.50;;;15.99;100.00
6028;BME280;3042;43.194;27.646;2023-03-23T00:05:57;101690.97;;;16.55;100.00
6028;BME280;3042;43.194;27.646;2023-03-23T00:08:25;101693.97;;;16.65;100.00
6028;BME280;3042;43.194;27.646;2023-03-23T00:10:52;101695.06;;;16.72;100.00
6028;BME280;3042;43.194;27.646;2023-03-23T00:13:22;101689.41;;;16.84;100.00
6028;BME280;3042;43.194;27.646;2023-03-23T00:15:49;101692.13;;;16.87;100.00
6028;BME280;3042;43.194;27.646;2023-03-23T00:18:19;101679.53;;;17.01;100.00
6028;BME280;3042;43.194;27.646;2023-03-23T00:20:51;101580.97;;;16.42;100.00
6028;BME280;3042;43.194;27.646;2023-03-23T00:23:19;101677.88;;;17.03;100.00
6028;BME280;3042;43.194;27.646;2023-03-23T00:25:47;101674.56;;;17.08;100.00
6028;BME280;3042;43.194;27.646;2023-03-23T00:28:15;101673.63;;;17.06;100.00
6028;BME280;3042;43.194;27.646;2023-03-23T00:30:43;101676.22;;;17.06;100.00
6028;BME280;3042;43.194;27.646;2023-03-23T00:33:10;101673.38;;;16.99;100.00
6028;BME280;3042;43.194;27.646;2023-03-23T00:35:41;101672.94;;;17.12;100.00
6028;BME280;3042;43.194;27.646;2023-03-23T00:38:10;101668.38;;;17.05;100.00
6028;BME280;3042;43.194;27.646;2023-03-23T00:40:37;101675.31;;;17.04;100.00
6028;BME280;3042;43.194;27.646;2023-03-23T00:43:04;101678.50;;;16.96;100.00
6028;BME280;3042;43.194;27.646;2023-03-23T00:45:31;101676.91;;;17.01;100.00
6028;BME280;3042;43.194;27.646;2023-03-23T00:48:00;101677.72;;;16.98;100.00
6028;BME280;3042;43.194;27.646;2023-03-23T00:50:30;101679.59;;;17.02;100.00
6028;BME280;3042;43.194;27.646;2023-03-23T00:52:59;101672.78;;;17.07;100.00
6028;BME280;3042;43.194;27.646;2023-03-23T00:55:26;101678.59;;;16.99;100.00
6028;BME280;3042;43.194;27.646;2023-03-23T00:57:53;101669.88;;;16.98;100.00
6028;BME280;3042;43.194;27.646;2023-03-23T01:00:20;101670.81;;;17.00;100.00
6028;BME280;3042;43.194;27.646;2023-03-23T01:02:47;101674.25;;;16.99;100.00
6028;BME280;3042;43.194;27.646;2023-03-23T01:05:17;101659.00;;;17.12;100.00
6028;BME280;3042;43.194;27.646;2023-03-23T01:07:44;101659.75;;;17.07;100.00
6028;BME280;3042;43.194;27.646;2023-03-23T01:10:14;101611.59;;;16.99;100.00
6028;BME280;3042;43.194;27.646;2023-03-23T01:12:44;101655.84;;;17.22;100.00
6028;BME280;3042;43.194;27.646;2023-03-23T01:15:15;101430.22;;;15.79;100.00
6028;BME280;3042;43.194;27.646;2023-03-23T01:17:43;101669.03;;;16.99;100.00
6028;BME280;3042;43.194;27.646;2023-03-23T01:20:12;101548.88;;;16.45;100.00
6028;BME280;3042;43.194;27.646;2023-03-23T01:22:40;101667.47;;;17.04;100.00
6028;BME280;3042;43.194;27.646;2023-03-23T01:25:10;101653.00;;;17.14;100.00
6028;BME280;3042;43.194;27.646;2023-03-23T01:27:39;101656.56;;;17.16;100.00
6028;BME280;3042;43.194;27.646;2023-03-23T01:30:09;101662.53;;;17.14;100.00
6028;BME280;3042;43.194;27.646;2023-03-23T01:32:37;101662.19;;;17.03;100.00
6028;BME280;3042;43.194;27.646;2023-03-23T01:35:05;101662.03;;;16.98;100.00
6028;BME280;3042;43.194;27.646;2023-03-23T01:37:32;101660.16;;;16.94;100.00
6028;BME280;3042;43.194;27.646;2023-03-23T01:39:59;101591.03;;;16.57;100.00
6028;BME280;3042;43.194;27.646;2023-03-23T01:42:31;101659.09;;;17.15;100.00
6028;BME280;3042;43.194;27.646;2023-03-23T01:45:24;101664.22;;;17.12;100.00
6028;BME280;3042;43.194;27.646;2023-03-23T01:48:06;101659.00;;;17.12;100.00
6028;BME280;3042;43.194;27.646;2023-03-23T01:50:38;101660.84;;;17.16;100.00
6028;BME280;3042;43.194;27.646;2023-03-23T01:53:07;101665.91;;;17.09;100.00
6028;BME280;3042;43.194;27.646;2023-03-23T01:55:38;101669.88;;;16.98;100.00
6028;BME280;3042;43.194;27.646;2023-03-23T01:58:07;101549.78;;;16.20;100.00
6028;BME280;3042;43.194;27.646;2023-03-23T02:00:37;101567.47;;;16.54;100.00
6028;BME280;3042;43.194;27.646;2023-03-23T02:03:08;101662.88;;;16.97;100.00
6028;BME280;3042;43.194;27.646;2023-03-23T02:05:40;101653.19;;;16.69;100.00
6028;BME280;3042;43.194;27.646;2023-03-23T02:08:09;101684.88;;;16.54;100.00
6028;BME280;3042;43.194;27.646;2023-03-23T02:10:37;101605.25;;;15.92;100.00
6028;BME280;3042;43.194;27.646;2023-03-23T02:13:06;101681.00;;;16.43;100.00
6028;BME280;3042;43.194;27.646;2023-03-23T02:15:43;101687.00;;;16.40;100.00
6028;BME280;3042;43.194;27.646;2023-03-23T02:18:20;101689.44;;;16.36;100.00
6028;BME280;3042;43.194;27.646;2023-03-23T02:21:07;101686.00;;;16.37;100.00
6028;BME280;3042;43.194;27.646;2023-03-23T02:23:52;101688.78;;;16.41;100.00
6028;BME280;3042;43.194;27.646;2023-03-23T02:26:38;101698.06;;;16.11;100.00
6028;BME280;3042;43.194;27.646;2023-03-23T02:29:31;101690.88;;;16.28;100.00
6028;BME280;3042;43.194;27.646;2023-03-23T02:32:30;101595.69;;;15.91;100.00
6028;BME280;3042;43.194;27.646;2023-03-23T02:35:05;101652.56;;;16.25;100.00
6028;BME280;3042;43.194;27.646;2023-03-23T02:37:39;101597.78;;;16.01;100.00
6028;BME280;3042;43.194;27.646;2023-03-23T02:40:09;101644.69;;;16.01;100.00
6028;BME280;3042;43.194;27.646;2023-03-23T02:42:41;101684.72;;;16.25;100.00
6028;BME280;3042;43.194;27.646;2023-03-23T02:45:11;101701.00;;;16.18;100.00
6028;BME280;3042;43.194;27.646;2023-03-23T02:47:41;101617.66;;;15.73;100.00
6028;BME280;3042;43.194;27.646;2023-03-23T02:50:14;101622.69;;;15.93;100.00
6028;BME280;3042;43.194;27.646;2023-03-23T02:52:43;101701.00;;;16.18;100.00
6028;BME280;3042;43.194;27.646;2023-03-23T02:55:11;101580.91;;;15.45;100.00
6028;BME280;3042;43.194;27.646;2023-03-23T02:57:39;101700.03;;;16.16;100.00
6028;BME280;3042;43.194;27.646;2023-03-23T03:00:07;101701.88;;;16.19;100.00
6028;BME280;3042;43.194;27.646;2023-03-23T03:02:38;101711.28;;;16.15;100.00
6028;BME280;3042;43.194;27.646;2023-03-23T03:05:14;101703.41;;;16.38;100.00
6028;BME280;3042;43.194;27.646;2023-03-23T03:07:59;101698.75;;;16.53;100.00
6028;BME280;3042;43.194;27.646;2023-03-23T03:10:33;101707.56;;;16.57;100.00
6028;BME280;3042;43.194;27.646;2023-03-23T03:13:08;101695.72;;;16.66;100.00
6028;BME280;3042;43.194;27.646;2023-03-23T03:15:43;101697.84;;;16.77;100.00
6028;BME280;3042;43.194;27.646;2023-03-23T03:18:14;101695.25;;;16.78;100.00
6028;BME280;3042;43.194;27.646;2023-03-23T03:20:47;101695.53;;;16.84;100.00
6028;BME280;3042;43.194;27.646;2023-03-23T03:23:16;101698.13;;;16.84;100.00
6028;BME280;3042;43.194;27.646;2023-03-23T03:25:44;101703.28;;;16.83;100.00
6028;BME280;3042;43.194;27.646;2023-03-23T03:28:15;101699.31;;;16.94;100.00
6028;BME280;3042;43.194;27.646;2023-03-23T03:30:47;101651.50;;;16.70;100.00
6028;BME280;3042;43.194;27.646;2023-03-23T03:33:17;101693.38;;;16.98;100.00
6028;BME280;3042;43.194;27.646;2023-03-23T03:35:47;101693.00;;;17.13;100.00
6028;BME280;3042;43.194;27.646;2023-03-23T03:38:15;101701.47;;;17.06;100.00
6028;BME280;3042;43.194;27.646;2023-03-23T03:40:42;101703.97;;;17.03;100.00
6028;BME280;3042;43.194;27.646;2023-03-23T03:43:09;101703.19;;;17.05;100.00
6028;BME280;3042;43.194;27.646;2023-03-23T03:45:36;101710.72;;;16.96;100.00
6028;BME280;3042;43.194;27.646;2023-03-23T03:48:03;101716.63;;;16.91;100.00
6028;BME280;3042;43.194;27.646;2023-03-23T03:50:30;101715.84;;;16.93;100.00
6028;BME280;3042;43.194;27.646;2023-03-23T03:52:59;101710.94;;;17.02;100.00
6028;BME280;3042;43.194;27.646;2023-03-23T03:55:26;101720.84;;;16.87;100.00
6028;BME280;3042;43.194;27.646;2023-03-23T03:57:53;101719.28;;;16.92;100.00
6028;BME280;3042;43.194;27.646;2023-03-23T04:00:21;101716.88;;;16.98;100.00
6028;BME280;3042;43.194;27.646;2023-03-23T04:02:50;101709.66;;;17.17;100.00
6028;BME280;3042;43.194;27.646;2023-03-23T04:05:20;101715.56;;;17.11;100.00
6028;BME280;3042;43.194;27.646;2023-03-23T04:07:48;101708.66;;;17.13;100.00
6028;BME280;3042;43.194;27.646;2023-03-23T04:10:19;101708.19;;;17.25;100.00
6028;BME280;3042;43.194;27.646;2023-03-23T04:12:48;101708.72;;;17.15;100.00
6028;BME280;3042;43.194;27.646;2023-03-23T04:15:15;101714.03;;;17.18;100.00
6028;BME280;3042;43.194;27.646;2023-03-23T04:17:42;101713.94;;;17.15;100.00
6028;BME280;3042;43.194;27.646;2023-03-23T04:20:11;101716.00;;;17.25;100.00
6028;BME280;3042;43.194;27.646;2023-03-23T04:22:43;101716.00;;;17.25;100.00
6028;BME280;3042;43.194;27.646;2023-03-23T04:25:11;101686.16;;;17.17;100.00
6028;BME280;3042;43.194;27.646;2023-03-23T04:27:41;101597.63;;;16.72;100.00
6028;BME280;3042;43.194;27.646;2023-03-23T04:30:13;101718.91;;;17.34;100.00
6028;BME280;3042;43.194;27.646;2023-03-23T04:32:40;101720.41;;;17.26;100.00
6028;BME280;3042;43.194;27.646;2023-03-23T04:35:09;101718.03;;;17.34;100.00
6028;BME280;3042;43.194;27.646;2023-03-23T04:37:38;101705.31;;;17.17;100.00
6028;BME280;3042;43.194;27.646;2023-03-23T04:40:07;101726.91;;;17.39;100.00
6028;BME280;3042;43.194;27.646;2023-03-23T04:42:37;101723.41;;;17.38;100.00
6028;BME280;3042;43.194;27.646;2023-03-23T04:45:07;101646.69;;;17.07;100.00
6028;BME280;3042;43.194;27.646;2023-03-23T04:47:36;101722.78;;;17.45;100.00
6028;BME280;3042;43.194;27.646;2023-03-23T04:50:07;101718.63;;;17.52;100.00
6028;BME280;3042;43.194;27.646;2023-03-23T04:52:35;101722.78;;;17.45;100.00
6028;BME280;3042;43.194;27.646;2023-03-23T04:55:07;101728.56;;;17.35;100.00
6028;BME280;3042;43.194;27.646;2023-03-23T04:57:35;101732.63;;;17.27;100.00
6028;BME280;3042;43.194;27.646;2023-03-23T05:00:02;101732.13;;;17.39;100.00
6028;BME280;3042;43.194;27.646;2023-03-23T05:02:36;101712.41;;;17.48;100.00
6028;BME280;3042;43.194;27.646;2023-03-23T05:05:05;101731.00;;;17.58;100.00
6028;BME280;3042;43.194;27.646;2023-03-23T05:07:32;101741.44;;;17.58;100.00
6028;BME280;3042;43.194;27.646;2023-03-23T05:09:59;101743.25;;;17.59;100.00
6028;BME280;3042;43.194;27.646;2023-03-23T05:12:26;101712.31;;;17.45;100.00
6028;BME280;3042;43.194;27.646;2023-03-23T05:14:53;101754.00;;;17.68;100.00
6028;BME280;3042;43.194;27.646;2023-03-23T05:17:21;101751.41;;;17.69;100.00
6028;BME280;3042;43.194;27.646;2023-03-23T05:19:51;101674.81;;;17.43;100.00
6028;BME280;3042;43.194;27.646;2023-03-23T05:22:18;101760.41;;;17.79;100.00
6028;BME280;3042;43.194;27.646;2023-03-23T05:24:46;101705.50;;;17.50;100.00
6028;BME280;3042;43.194;27.646;2023-03-23T05:27:13;101763.28;;;17.85;100.00
6028;BME280;3042;43.194;27.646;2023-03-23T05:29:43;101759.91;;;17.89;100.00
6028;BME280;3042;43.194;27.646;2023-03-23T05:32:11;101755.63;;;17.91;100.00
6028;BME280;3042;43.194;27.646;2023-03-23T05:34:38;101769.72;;;17.97;100.00
6028;BME280;3042;43.194;27.646;2023-03-23T05:37:07;101765.06;;;18.17;100.00
6028;BME280;3042;43.194;27.646;2023-03-23T05:39:35;101750.47;;;17.95;100.00
6028;BME280;3042;43.194;27.646;2023-03-23T05:42:02;101778.78;;;18.08;100.00
6028;BME280;3042;43.194;27.646;2023-03-23T05:44:30;101786.50;;;18.03;100.00
6028;BME280;3042;43.194;27.646;2023-03-23T05:46:57;101783.63;;;17.96;100.00
6028;BME280;3042;43.194;27.646;2023-03-23T05:49:24;101793.69;;;17.83;100.00
6028;BME280;3042;43.194;27.646;2023-03-23T05:51:51;101795.06;;;17.72;100.00
6028;BME280;3042;43.194;27.646;2023-03-23T05:54:20;101805.34;;;17.66;100.00
6028;BME280;3042;43.194;27.646;2023-03-23T05:56:47;101811.38;;;17.38;100.00
6028;BME280;3042;43.194;27.646;2023-03-23T05:59:14;101814.97;;;17.41;100.00
6028;BME280;3042;43.194;27.646;2023-03-23T06:01:42;101806.78;;;17.58;100.00
6028;BME280;3042;43.194;27.646;2023-03-23T06:04:09;101809.84;;;17.71;100.00
6028;BME280;3042;43.194;27.646;2023-03-23T06:06:37;101802.41;;;17.82;100.00
6028;BME280;3042;43.194;27.646;2023-03-23T06:09:04;101850.09;;;17.49;100.00
6028;BME280;3042;43.194;27.646;2023-03-23T06:11:33;101819.56;;;17.48;100.00
6028;BME280;3042;43.194;27.646;2023-03-23T06:14:00;101822.69;;;17.38;100.00
6028;BME280;3042;43.194;27.646;2023-03-23T06:16:28;101815.19;;;17.47;100.00
6028;BME280;3042;43.194;27.646;2023-03-23T06:18:55;101813.28;;;17.43;100.00
6028;BME280;3042;43.194;27.646;2023-03-23T06:21:23;101804.00;;;17.26;100.00
6028;BME280;3042;43.194;27.646;2023-03-23T06:23:50;101783.09;;;17.26;100.00
6028;BME280;3042;43.194;27.646;2023-03-23T06:26:18;101805.91;;;17.83;100.00
6028;BME280;3042;43.194;27.646;2023-03-23T06:28:47;101778.31;;;17.92;100.00
6028;BME280;3042;43.194;27.646;2023-03-23T06:31:14;101802.13;;;18.02;100.00
6028;BME280;3042;43.194;27.646;2023-03-23T06:33:42;101815.13;;;17.99;100.00
6028;BME280;3042;43.194;27.646;2023-03-23T06:36:10;101825.06;;;17.82;100.00
6028;BME280;3042;43.194;27.646;2023-03-23T06:38:37;101815.91;;;17.96;100.00
6028;BME280;3042;43.194;27.646;2023-03-23T06:41:05;101677.63;;;17.49;100.00
6028;BME280;3042;43.194;27.646;2023-03-23T06:43:32;101817.50;;;18.20;100.00
6028;BME280;3042;43.194;27.646;2023-03-23T06:46:02;101809.69;;;18.50;100.00
6028;BME280;3042;43.194;27.646;2023-03-23T06:48:29;101817.56;;;18.51;100.00
6028;BME280;3042;43.194;27.646;2023-03-23T06:50:57;101813.41;;;18.58;100.00
6028;BME280;3042;43.194;27.646;2023-03-23T06:53:24;101787.16;;;18.55;100.00
6028;BME280;3042;43.194;27.646;2023-03-23T06:55:51;101779.81;;;18.43;100.00
6028;BME280;3042;43.194;27.646;2023-03-23T06:58:18;101822.44;;;18.69;100.00
6028;BME280;3042;43.194;27.646;2023-03-23T07:00:46;101831.09;;;18.37;100.00
6028;BME280;3042;43.194;27.646;2023-03-23T07:03:15;101822.25;;;18.63;100.00
6028;BME280;3042;43.194;27.646;2023-03-23T07:05:42;101836.00;;;18.54;100.00
6028;BME280;3042;43.194;27.646;2023-03-23T07:08:12;101836.75;;;18.50;100.00
6028;BME280;3042;43.194;27.646;2023-03-23T07:10:39;101833.47;;;18.58;100.00
6028;BME280;3042;43.194;27.646;2023-03-23T07:13:06;101835.47;;;18.66;100.00
6028;BME280;3042;43.194;27.646;2023-03-23T07:15:33;101844.59;;;18.50;100.00
6028;BME280;3042;43.194;27.646;2023-03-23T07:18:01;101846.50;;;18.27;100.00
6028;BME280;3042;43.194;27.646;2023-03-23T07:20:29;101837.16;;;18.66;100.00
6028;BME280;3042;43.194;27.646;2023-03-23T07:22:56;101836.34;;;18.67;100.00
6028;BME280;3042;43.194;27.646;2023-03-23T07:25:23;101841.25;;;18.56;100.00
6028;BME280;3042;43.194;27.646;2023-03-23T07:27:50;101808.09;;;18.55;100.00
6028;BME280;3042;43.194;27.646;2023-03-23T07:30:18;101827.31;;;18.86;100.00
6028;BME280;3042;43.194;27.646;2023-03-23T07:32:45;101823.19;;;18.64;100.00
6028;BME280;3042;43.194;27.646;2023-03-23T07:35:12;101840.16;;;18.76;100.00
6028;BME280;3042;43.194;27.646;2023-03-23T07:37:40;101839.19;;;18.74;100.00
6028;BME280;3042;43.194;27.646;2023-03-23T07:40:08;101852.25;;;18.44;100.00
6028;BME280;3042;43.194;27.646;2023-03-23T07:42:36;101788.81;;;18.23;100.00
6028;BME280;3042;43.194;27.646;2023-03-23T07:45:04;101838.47;;;18.79;100.00
6028;BME280;3042;43.194;27.646;2023-03-23T07:47:31;101832.75;;;18.93;100.00
6028;BME280;3042;43.194;27.646;2023-03-23T07:49:58;101817.88;;;18.62;100.00
6028;BME280;3042;43.194;27.646;2023-03-23T07:52:25;101831.56;;;18.82;100.00
6028;BME280;3042;43.194;27.646;2023-03-23T07:54:54;101791.09;;;18.41;100.00
6028;BME280;3042;43.194;27.646;2023-03-23T07:57:21;101853.53;;;18.57;100.00
6028;BME280;3042;43.194;27.646;2023-03-23T07:59:48;101860.91;;;18.42;100.00
6028;BME280;3042;43.194;27.646;2023-03-23T08:02:15;101838.59;;;18.24;100.00
6028;BME280;3042;43.194;27.646;2023-03-23T08:04:42;101864.25;;;18.36;100.00
6028;BME280;3042;43.194;27.646;2023-03-23T08:07:10;101876.91;;;18.22;100.00
6028;BME280;3042;43.194;27.646;2023-03-23T08:09:38;101814.19;;;18.25;100.00
6028;BME280;3042;43.194;27.646;2023-03-23T08:12:06;101848.94;;;18.79;100.00
6028;BME280;3042;43.194;27.646;2023-03-23T08:14:33;101835.44;;;18.95;100.00
6028;BME280;3042;43.194;27.646;2023-03-23T08:17:00;101845.41;;;19.08;100.00
6028;BME280;3042;43.194;27.646;2023-03-23T08:19:28;101851.72;;;18.56;100.00
6028;BME280;3042;43.194;27.646;2023-03-23T08:21:56;101856.03;;;18.83;100.00
6028;BME280;3042;43.194;27.646;2023-03-23T08:24:22;101849.19;;;19.19;100.00
6028;BME280;3042;43.194;27.646;2023-03-23T08:26:49;101754.78;;;18.83;100.00
6028;BME280;3042;43.194;27.646;2023-03-23T08:29:18;101773.38;;;18.62;100.00
6028;BME280;3042;43.194;27.646;2023-03-23T08:31:45;101861.97;;;18.77;100.00
6028;BME280;3042;43.194;27.646;2023-03-23T08:34:12;101863.78;;;18.51;100.00
6028;BME280;3042;43.194;27.646;2023-03-23T08:36:41;101879.13;;;18.39;100.00
6028;BME280;3042;43.194;27.646;2023-03-23T08:39:09;101872.50;;;18.50;100.00
6028;BME280;3042;43.194;27.646;2023-03-23T08:41:36;101871.44;;;18.45;100.00
6028;BME280;3042;43.194;27.646;2023-03-23T08:44:03;101857.16;;;18.62;100.00
6028;BME280;3042;43.194;27.646;2023-03-23T08:46:32;101865.06;;;18.64;100.00
6028;BME280;3042;43.194;27.646;2023-03-23T08:48:59;101857.88;;;18.87;100.00
6028;BME280;3042;43.194;27.646;2023-03-23T08:51:26;101846.56;;;19.19;100.00
6028;BME280;3042;43.194;27.646;2023-03-23T08:53:53;101848.91;;;19.42;100.00
6028;BME280;3042;43.194;27.646;2023-03-23T08:56:20;101854.06;;;19.39;100.00
6028;BME280;3042;43.194;27.646;2023-03-23T08:58:48;101874.66;;;18.92;100.00
6028;BME280;3042;43.194;27.646;2023-03-23T09:01:15;101886.75;;;18.31;100.00
6028;BME280;3042;43.194;27.646;2023-03-23T09:03:44;101875.31;;;18.27;100.00
6028;BME280;3042;43.194;27.646;2023-03-23T09:06:11;101813.53;;;18.04;100.00
6028;BME280;3042;43.194;27.646;2023-03-23T09:08:39;101855.25;;;18.87;100.00
6028;BME280;3042;43.194;27.646;2023-03-23T09:11:07;101845.75;;;19.22;100.00
6028;BME280;3042;43.194;27.646;2023-03-23T09:13:36;101838.50;;;19.45;100.00
6028;BME280;3042;43.194;27.646;2023-03-23T09:16:04;101842.34;;;19.25;100.00
6028;BME280;3042;43.194;27.646;2023-03-23T09:18:32;101827.84;;;19.72;100.00
6028;BME280;3042;43.194;27.646;2023-03-23T09:21:02;101840.28;;;19.46;100.00
6028;BME280;3042;43.194;27.646;2023-03-23T09:23:30;101767.16;;;18.89;100.00
6028;BME280;3042;43.194;27.646;2023-03-23T09:25:59;101841.81;;;19.38;100.00
6028;BME280;3042;43.194;27.646;2023-03-23T09:28:27;101846.66;;;19.23;100.00
6028;BME280;3042;43.194;27.646;2023-03-23T09:30:55;101828.16;;;18.85;100.00
6028;BME280;3042;43.194;27.646;2023-03-23T09:33:23;101861.16;;;18.80;100.00
6028;BME280;3042;43.194;27.646;2023-03-23T09:35:51;101854.72;;;18.40;100.00
6028;BME280;3042;43.194;27.646;2023-03-23T09:38:20;101864.28;;;18.68;100.00
6028;BME280;3042;43.194;27.646;2023-03-23T09:40:48;101866.56;;;18.55;100.00
6028;BME280;3042;43.194;27.646;2023-03-23T09:43:46;101790.94;;;18.06;100.00
6028;BME280;3042;43.194;27.646;2023-03-23T09:46:33;101852.75;;;18.90;100.00
6028;BME280;3042;43.194;27.646;2023-03-23T09:49:07;101836.97;;;19.20;100.00
6028;BME280;3042;43.194;27.646;2023-03-23T09:51:42;101845.28;;;19.05;100.00
6028;BME280;3042;43.194;27.646;2023-03-23T09:54:17;101764.41;;;18.54;100.00
6028;BME280;3042;43.194;27.646;2023-03-23T09:56:45;101854.50;;;18.91;100.00
6028;BME280;3042;43.194;27.646;2023-03-23T09:59:18;101806.16;;;18.49;100.00
6028;BME280;3042;43.194;27.646;2023-03-23T10:01:48;101803.06;;;18.32;100.00
6028;BME280;3042;43.194;27.646;2023-03-23T10:04:27;101850.00;;;18.85;100.00
6028;BME280;3042;43.194;27.646;2023-03-23T10:06:59;101692.81;;;18.20;100.00
6028;BME280;3042;43.194;27.646;2023-03-23T10:09:29;101840.66;;;18.95;100.00
6028;BME280;3042;43.194;27.646;2023-03-23T10:12:10;101722.44;;;18.51;100.00
6028;BME280;3042;43.194;27.646;2023-03-23T10:15:02;101834.06;;;19.09;100.00
6028;BME280;3042;43.194;27.646;2023-03-23T10:17:45;101824.63;;;19.49;100.00
6028;BME280;3042;43.194;27.646;2023-03-23T10:20:40;101735.50;;;19.14;100.00
6028;BME280;3042;43.194;27.646;2023-03-23T10:23:35;101818.06;;;19.67;100.00
6028;BME280;3042;43.194;27.646;2023-03-23T10:26:13;101779.06;;;19.44;100.00
6028;BME280;3042;43.194;27.646;2023-03-23T10:28:43;101807.13;;;20.21;100.00
6028;BME280;3042;43.194;27.646;2023-03-23T10:31:13;101719.72;;;19.84;100.00
6028;BME280;3042;43.194;27.646;2023-03-23T10:33:44;101813.41;;;20.70;100.00
6028;BME280;3042;43.194;27.646;2023-03-23T10:36:15;101814.88;;;21.01;100.00
6028;BME280;3042;43.194;27.646;2023-03-23T10:38:47;101646.44;;;20.37;100.00
6028;BME280;3042;43.194;27.646;2023-03-23T10:41:18;101820.72;;;20.85;100.00
6028;BME280;3042;43.194;27.646;2023-03-23T10:43:46;101824.75;;;20.68;100.00
6028;BME280;3042;43.194;27.646;2023-03-23T10:46:29;101769.59;;;20.69;100.00
6028;BME280;3042;43.194;27.646;2023-03-23T10:49:01;101821.03;;;20.58;100.00
6028;BME280;3042;43.194;27.646;2023-03-23T10:51:32;101790.56;;;20.25;100.00
6028;BME280;3042;43.194;27.646;2023-03-23T10:54:02;101823.84;;;20.26;100.00
6028;BME280;3042;43.194;27.646;2023-03-23T10:56:38;101827.78;;;20.07;100.00
6028;BME280;3042;43.194;27.646;2023-03-23T10:59:14;101821.16;;;20.23;100.00
6028;BME280;3042;43.194;27.646;2023-03-23T11:01:44;101807.44;;;20.36;100.00
6028;BME280;3042;43.194;27.646;2023-03-23T11:04:15;101678.72;;;19.89;100.00
6028;BME280;3042;43.194;27.646;2023-03-23T11:06:46;101788.31;;;20.86;100.00
6028;BME280;3042;43.194;27.646;2023-03-23T11:09:17;101741.25;;;20.53;100.00
6028;BME280;3042;43.194;27.646;2023-03-23T11:11:50;101767.94;;;20.74;100.00
6028;BME280;3042;43.194;27.646;2023-03-23T11:14:19;101712.50;;;20.15;100.00
6028;BME280;3042;43.194;27.646;2023-03-23T11:16:54;101694.66;;;19.98;100.00
6028;BME280;3042;43.194;27.646;2023-03-23T11:19:24;101795.56;;;20.54;100.00
6028;BME280;3042;43.194;27.646;2023-03-23T11:22:00;101794.84;;;20.62;100.00
6028;BME280;3042;43.194;27.646;2023-03-23T11:24:33;101655.84;;;19.82;100.00
6028;BME280;3042;43.194;27.646;2023-03-23T11:27:02;101794.69;;;20.55;100.00
6028;BME280;3042;43.194;27.646;2023-03-23T11:29:33;101627.03;;;19.44;100.00
6028;BME280;3042;43.194;27.646;2023-03-23T11:32:04;101797.31;;;20.55;100.00
6028;BME280;3042;43.194;27.646;2023-03-23T11:34:34;101767.31;;;20.43;100.00
6028;BME280;3042;43.194;27.646;2023-03-23T11:37:04;101785.38;;;20.69;100.00
6028;BME280;3042;43.194;27.646;2023-03-23T11:39:34;101798.91;;;20.47;100.00
6028;BME280;3042;43.194;27.646;2023-03-23T11:42:17;101794.56;;;20.49;100.00
6028;BME280;3042;43.194;27.646;2023-03-23T11:44:46;101799.44;;;20.32;100.00
6028;BME280;3042;43.194;27.646;2023-03-23T11:47:17;101575.13;;;19.28;100.00
6028;BME280;3042;43.194;27.646;2023-03-23T11:49:53;101726.78;;;20.29;100.00
6028;BME280;3042;43.194;27.646;2023-03-23T11:52:27;101782.50;;;20.57;100.00
6028;BME280;3042;43.194;27.646;2023-03-23T11:55:03;101735.50;;;20.28;100.00
6028;BME280;3042;43.194;27.646;2023-03-23T11:57:45;101779.16;;;20.64;100.00
6028;BME280;3042;43.194;27.646;2023-03-23T12:00:17;101779.94;;;20.60;100.00
6028;BME280;3042;43.194;27.646;2023-03-23T12:03:05;101771.41;;;20.70;100.00
6028;BME280;3042;43.194;27.646;2023-03-23T12:05:43;101631.63;;;19.95;100.00
6028;BME280;3042;43.194;27.646;2023-03-23T12:08:30;101754.97;;;20.82;100.00
6028;BME280;3042;43.194;27.646;2023-03-23T12:11:07;101751.84;;;21.03;100.00
6028;BME280;3042;43.194;27.646;2023-03-23T12:13:51;101739.75;;;21.13;100.00
6028;BME280;3042;43.194;27.646;2023-03-23T12:16:30;101724.19;;;21.25;100.00
6028;BME280;3042;43.194;27.646;2023-03-23T12:19:05;101731.22;;;21.26;100.00
6028;BME280;3042;43.194;27.646;2023-03-23T12:21:43;101733.81;;;21.24;100.00
6028;BME280;3042;43.194;27.646;2023-03-23T12:24:21;101724.28;;;21.31;100.00
6028;BME280;3042;43.194;27.646;2023-03-23T12:26:58;101731.06;;;21.18;100.00
6028;BME280;3042;43.194;27.646;2023-03-23T12:29:50;101595.06;;;20.52;100.00
6028;BME280;3042;43.194;27.646;2023-03-23T12:32:29;101731.06;;;21.17;100.00
6028;BME280;3042;43.194;27.646;2023-03-23T12:35:07;101714.69;;;20.81;100.00
6028;BME280;3042;43.194;27.646;2023-03-23T12:37:52;101729.28;;;21.16;100.00
6028;BME280;3042;43.194;27.646;2023-03-23T12:40:37;101753.84;;;20.69;100.00
6028;BME280;3042;43.194;27.646;2023-03-23T12:43:15;101567.34;;;20.19;100.00
6028;BME280;3042;43.194;27.646;2023-03-23T12:45:56;101711.16;;;20.79;100.00
6028;BME280;3042;43.194;27.646;2023-03-23T12:48:32;101738.38;;;20.84;100.00
6028;BME280;3042;43.194;27.646;2023-03-23T12:51:10;101710.59;;;20.99;100.00
6028;BME280;3042;43.194;27.646;2023-03-23T12:53:46;101718.03;;;21.24;100.00
6028;BME280;3042;43.194;27.646;2023-03-23T12:56:17;101702.75;;;21.55;100.00
6028;BME280;3042;43.194;27.646;2023-03-23T12:58:48;101699.47;;;21.68;100.00
6028;BME280;3042;43.194;27.646;2023-03-23T13:01:22;101689.38;;;22.05;100.00
6028;BME280;3042;43.194;27.646;2023-03-23T13:03:55;101700.59;;;21.89;100.00
6028;BME280;3042;43.194;27.646;2023-03-23T13:06:27;101686.19;;;22.28;100.00
6028;BME280;3042;43.194;27.646;2023-03-23T13:09:01;101619.44;;;22.23;100.00